createdAt,value
2022-10-01T00:01:50.828Z,100453.09
2022-10-01T00:06:59.235Z,100452.35
2022-10-01T00:12:05.501Z,100450.16
2022-10-01T00:17:11.094Z,100457.57
2022-10-01T00:22:18.931Z,100459.84
2022-10-01T00:27:24.735Z,100456.64
2022-10-01T00:32:32.276Z,100460.03
2022-10-01T00:37:38.339Z,100463.37
2022-10-01T00:42:44.237Z,100462.50
2022-10-01T00:47:55.602Z,100463.84
2022-10-01T00:53:05.253Z,100475.13
2022-10-01T00:58:13.199Z,100474.80
2022-10-01T01:03:19.241Z,100466.33
2022-10-01T01:08:24.964Z,100456.05
2022-10-01T01:13:37.832Z,100453.73
2022-10-01T01:18:50.544Z,100452.46
2022-10-01T01:24:20.124Z,100453.57
2022-10-01T01:29:33.656Z,100456.71
2022-10-01T01:34:43.479Z,100459.20
2022-10-01T01:39:53.377Z,100463.44
2022-10-01T01:45:02.239Z,100470.95
2022-10-01T01:50:10.824Z,100472.05
2022-10-01T01:55:16.595Z,100469.96
2022-10-01T02:00:22.509Z,100474.13
2022-10-01T02:05:33.523Z,100469.39
2022-10-01T02:10:55.960Z,100474.15
2022-10-01T02:16:19.247Z,100478.40
2022-10-01T02:21:32.867Z,100484.43
2022-10-01T02:26:41.220Z,100490.85
2022-10-01T02:31:49.215Z,100492.48
2022-10-01T02:36:58.662Z,100494.64
2022-10-01T02:42:06.673Z,100491.27
2022-10-01T02:47:18.428Z,100476.86
2022-10-01T02:52:32.818Z,100467.14
2022-10-01T02:57:39.180Z,100458.29
2022-10-01T03:02:44.935Z,100451.96
2022-10-01T03:07:50.781Z,100441.97
2022-10-01T03:12:56.703Z,100431.35
2022-10-01T03:18:02.485Z,100426.81
2022-10-01T03:23:08.104Z,100421.41
2022-10-01T03:28:13.812Z,100410.94
2022-10-01T03:33:19.679Z,100407.16
2022-10-01T03:38:25.431Z,100404.77
2022-10-01T03:43:31.290Z,100409.46
2022-10-01T03:48:37.443Z,100413.25
2022-10-01T03:53:43.260Z,100430.99
2022-10-01T03:58:49.026Z,100445.52
2022-10-01T04:03:55.156Z,100446.56
2022-10-01T04:09:01.014Z,100448.93
2022-10-01T04:14:06.931Z,100442.18
2022-10-01T04:19:12.757Z,100444.92
2022-10-01T04:24:18.677Z,100445.01
2022-10-01T04:29:24.630Z,100444.15
2022-10-01T04:34:49.091Z,100437.17
2022-10-01T04:39:55.026Z,100437.30
2022-10-01T04:45:00.730Z,100436.19
2022-10-01T04:50:08.082Z,100437.17
2022-10-01T04:55:15.028Z,100438.45
2022-10-01T05:00:24.428Z,100432.63
2022-10-01T05:05:32.998Z,100431.41
2022-10-01T05:10:39.274Z,100436.83
2022-10-01T05:15:45.077Z,100434.88
2022-10-01T05:20:50.876Z,100433.55
2022-10-01T05:25:56.783Z,100438.11
2022-10-01T05:31:03.525Z,100439.72
2022-10-01T05:36:09.697Z,100440.16
2022-10-01T05:41:16.245Z,100439.89
2022-10-01T05:46:22.134Z,100442.48
2022-10-01T05:51:28.010Z,100443.23
2022-10-01T05:56:33.887Z,100443.65
2022-10-01T06:01:39.630Z,100443.84
2022-10-01T06:06:45.478Z,100447.41
2022-10-01T06:11:51.291Z,100449.02
2022-10-01T06:16:57.170Z,100441.74
2022-10-01T06:22:03.088Z,100437.96
2022-10-01T06:27:11.325Z,100427.33
2022-10-01T06:32:19.711Z,100425.02
2022-10-01T06:37:25.938Z,100423.17
2022-10-01T06:42:31.855Z,100418.81
2022-10-01T06:47:37.850Z,100419.59
2022-10-01T06:52:49.322Z,100420.74
2022-10-01T06:57:59.021Z,100422.83
2022-10-01T07:03:08.806Z,100421.23
2022-10-01T07:08:15.004Z,100414.88
2022-10-01T07:13:21.701Z,100417.69
2022-10-01T07:18:27.759Z,100417.98
2022-10-01T07:23:33.719Z,100414.82
2022-10-01T07:28:39.585Z,100408.55
2022-10-01T07:33:45.321Z,100413.50
2022-10-01T07:38:51.433Z,100417.53
2022-10-01T07:43:57.611Z,100410.05
2022-10-01T07:49:03.546Z,100408.79
2022-10-01T07:54:09.776Z,100411.58
2022-10-01T07:59:15.562Z,100417.80
2022-10-01T08:04:41.495Z,100422.18
2022-10-01T08:09:47.659Z,100425.45
2022-10-01T08:14:53.411Z,100428.30
2022-10-01T08:20:03.850Z,100424.88
2022-10-01T08:25:15.492Z,100415.42
2022-10-01T08:30:21.189Z,100405.77
2022-10-01T08:35:28.527Z,100394.23
2022-10-01T08:40:38.145Z,100386.02
2022-10-01T08:45:47.817Z,100387.39
2022-10-01T08:51:00.652Z,100375.30
2022-10-01T08:56:17.815Z,100368.91
2022-10-01T09:01:23.922Z,100369.85
2022-10-01T09:06:30.759Z,100368.72
2022-10-01T09:11:48.967Z,100362.86
2022-10-01T09:17:05.039Z,100360.08
2022-10-01T09:22:26.181Z,100358.73
2022-10-01T09:27:33.599Z,100347.56
2022-10-01T09:32:43.362Z,100344.59
2022-10-01T09:37:55.725Z,100345.34
2022-10-01T09:43:01.909Z,100345.20
2022-10-01T09:48:30.485Z,100351.27
2022-10-01T09:53:42.510Z,100354.63
2022-10-01T09:58:52.859Z,100351.08
2022-10-01T10:03:59.431Z,100344.65
2022-10-01T10:09:15.230Z,100345.52
2022-10-01T10:14:28.552Z,100342.81
2022-10-01T10:19:35.489Z,100331.33
2022-10-01T10:24:41.308Z,100328.42
2022-10-01T10:29:47.036Z,100326.69
2022-10-01T10:35:00.821Z,100317.51
2022-10-01T10:40:16.983Z,100310.27
2022-10-01T10:45:29.866Z,100295.60
2022-10-01T10:50:39.410Z,100285.42
2022-10-01T10:55:56.130Z,100283.77
2022-10-01T11:01:09.848Z,100280.20
2022-10-01T11:06:18.635Z,100271.44
2022-10-01T11:11:40.594Z,100261.99
2022-10-01T11:17:04.936Z,100253.53
2022-10-01T11:22:27.342Z,100247.46
2022-10-01T11:27:44.670Z,100238.52
2022-10-01T11:33:03.664Z,100234.52
2022-10-01T11:38:39.557Z,100221.23
2022-10-01T11:43:49.795Z,100208.69
2022-10-01T11:49:02.227Z,100197.80
2022-10-01T11:54:14.515Z,100182.59
2022-10-01T11:59:28.541Z,100170.23
2022-10-01T12:04:39.671Z,100163.61
2022-10-01T12:09:55.444Z,100162.02
2022-10-01T12:15:10.543Z,100159.55
2022-10-01T12:20:23.958Z,100147.13
2022-10-01T12:25:38.919Z,100143.83
2022-10-01T12:30:53.876Z,100144.07
2022-10-01T12:36:09.892Z,100135.36
2022-10-01T12:41:29.968Z,100130.75
2022-10-01T12:46:42.830Z,100119.90
2022-10-01T12:51:55.192Z,100107.21
2022-10-01T12:57:14.815Z,100098.70
2022-10-01T13:02:41.847Z,100094.68
2022-10-01T13:07:57.039Z,100084.98
2022-10-01T13:13:11.070Z,100076.69
2022-10-01T13:18:31.718Z,100078.36
2022-10-01T13:23:44.927Z,100079.23
2022-10-01T13:29:07.440Z,100069.42
2022-10-01T13:34:35.286Z,100064.80
2022-10-01T13:39:43.443Z,100059.52
2022-10-01T13:44:55.706Z,100059.49
2022-10-01T13:50:05.051Z,100058.90
2022-10-01T13:55:28.059Z,100049.72
2022-10-01T14:00:34.846Z,100039.77
2022-10-01T14:05:43.077Z,100033.09
2022-10-01T14:11:19.700Z,100034.06
2022-10-01T14:16:25.644Z,100024.36
2022-10-01T14:21:45.153Z,100013.77
2022-10-01T14:26:55.962Z,100005.45
2022-10-01T14:32:13.352Z,100001.02
2022-10-01T14:37:21.066Z,99999.14
2022-10-01T14:42:26.848Z,99997.89
2022-10-01T14:47:35.965Z,99990.25
2022-10-01T14:52:47.514Z,99984.73
2022-10-01T14:57:55.646Z,99977.54
2022-10-01T15:03:15.856Z,99972.52
2022-10-01T15:08:35.855Z,99964.58
2022-10-01T15:13:44.721Z,99959.24
2022-10-01T15:18:53.594Z,99957.59
2022-10-01T15:23:59.829Z,99951.67
2022-10-01T15:29:12.323Z,99948.70
2022-10-01T15:34:22.948Z,99942.05
2022-10-01T15:39:32.610Z,99934.00
2022-10-01T15:44:47.315Z,99931.55
2022-10-01T15:50:18.459Z,99923.05
2022-10-01T15:55:33.619Z,99915.88
2022-10-01T16:00:54.366Z,99906.98
2022-10-01T16:06:02.167Z,99906.30
2022-10-01T16:11:18.901Z,99907.10
2022-10-01T16:16:27.427Z,99903.77
2022-10-01T16:21:41.431Z,99892.95
2022-10-01T16:26:48.054Z,99885.33
2022-10-01T16:31:56.185Z,99876.25
2022-10-01T16:37:02.336Z,99863.23
2022-10-01T16:42:23.186Z,99854.43
2022-10-01T16:47:30.010Z,99850.46
2022-10-01T16:52:36.344Z,99847.64
2022-10-01T16:57:42.502Z,99845.43
2022-10-01T17:02:48.641Z,99841.69
2022-10-01T17:07:55.042Z,99839.98
2022-10-01T17:13:02.077Z,99841.96
2022-10-01T17:18:09.587Z,99838.58
2022-10-01T17:23:18.259Z,99831.48
2022-10-01T17:28:24.469Z,99824.94
2022-10-01T17:33:30.734Z,99813.55
2022-10-01T17:38:36.876Z,99802.64
2022-10-01T17:43:42.533Z,99797.29
2022-10-01T17:48:50.805Z,99793.52
2022-10-01T17:53:56.753Z,99794.33
2022-10-01T17:59:04.586Z,99806.41
2022-10-01T18:04:12.369Z,99810.40
2022-10-01T18:09:18.168Z,99806.53
2022-10-01T18:14:24.069Z,99800.20
2022-10-01T18:19:52.841Z,99796.72
2022-10-01T18:24:56.702Z,99792.30
2022-10-01T18:30:02.588Z,99785.70
2022-10-01T18:35:19.388Z,99781.36
2022-10-01T18:40:28.709Z,99778.21
2022-10-01T18:45:45.755Z,99770.52
2022-10-01T18:50:58.913Z,99765.30
2022-10-01T18:56:24.034Z,99761.61
2022-10-01T19:01:41.019Z,99756.98
2022-10-01T19:06:54.177Z,99756.36
2022-10-01T19:12:15.155Z,99758.95
2022-10-01T19:17:34.159Z,99751.54
2022-10-01T19:22:59.454Z,99743.15
2022-10-01T19:28:16.634Z,99742.27
2022-10-01T19:33:22.586Z,99741.97
2022-10-01T19:38:34.698Z,99733.64
2022-10-01T19:43:47.933Z,99727.36
2022-10-01T19:49:00.641Z,99724.23
2022-10-01T19:54:13.794Z,99717.48
2022-10-01T19:59:21.168Z,99714.48
2022-10-01T20:04:36.594Z,99704.54
2022-10-01T20:09:45.418Z,99701.40
2022-10-01T20:15:08.728Z,99707.20
2022-10-01T20:20:23.383Z,99707.99
2022-10-01T20:25:39.785Z,99708.84
2022-10-01T20:30:57.023Z,99712.97
2022-10-01T20:36:13.721Z,99714.16
2022-10-01T20:41:23.224Z,99710.36
2022-10-01T20:46:38.043Z,99706.52
2022-10-01T20:51:53.924Z,99702.88
2022-10-01T20:57:05.868Z,99700.73
2022-10-01T21:02:34.590Z,99697.42
2022-10-01T21:07:48.891Z,99690.09
2022-10-01T21:13:02.592Z,99687.20
2022-10-01T21:18:19.334Z,99694.53
2022-10-01T21:23:39.624Z,99714.66
2022-10-01T21:29:04.527Z,99729.71
2022-10-01T21:34:17.581Z,99739.39
2022-10-01T21:39:33.562Z,99738.45
2022-10-01T21:45:12.063Z,99744.39
2022-10-01T21:50:25.398Z,99746.17
2022-10-01T21:55:47.511Z,99746.48
2022-10-01T22:01:00.285Z,99745.70
2022-10-01T22:06:16.332Z,99740.40
2022-10-01T22:11:26.527Z,99742.42
2022-10-01T22:16:40.542Z,99734.81
2022-10-01T22:21:50.417Z,99732.50
2022-10-01T22:27:05.499Z,99734.32
2022-10-01T22:32:15.308Z,99738.50
2022-10-01T22:37:26.839Z,99738.75
2022-10-01T22:42:37.362Z,99733.73
2022-10-01T22:47:59.146Z,99741.11
2022-10-01T22:53:18.853Z,99743.34
2022-10-01T22:58:38.965Z,99750.69
2022-10-01T23:04:00.080Z,99756.85
2022-10-01T23:09:09.754Z,99753.54
2022-10-01T23:14:32.073Z,99757.80
2022-10-01T23:19:49.806Z,99760.18
2022-10-01T23:25:13.851Z,99759.30
2022-10-01T23:30:20.975Z,99757.19
2022-10-01T23:35:40.445Z,99757.83
2022-10-01T23:40:48.293Z,99756.77
2022-10-01T23:45:59.068Z,99762.73
2022-10-01T23:51:09.875Z,99767.82
2022-10-01T23:56:40.396Z,99772.11
